Time;durP1;ratioP1;P1;durP2;ratioP2;P2;SDS_P1;SDS_P2;PMS_P1;PMS_P2;Temp;Humidity;BMP_temperature;BMP_pressure;BME280_temperature;BME280_humidity;BME280_pressure;Samples;Min_cycle;Max_cycle;Signal;HPM_P1;HPM_P2
2021/03/02 00:01:25;;;;;;;15.43;6.70;;;5.20;90.20;;;;;;4959721;28;20431;-74
2021/03/02 00:03:56;;;;;;;13.90;6.77;;;5.20;90.00;;;;;;4982772;28;20096;-74
2021/03/02 00:06:24;;;;;;;11.03;4.67;;;5.20;90.00;;;;;;4984197;28;20058;-72
2021/03/02 00:08:50;;;;;;;15.17;6.20;;;5.20;90.00;;;;;;4968804;28;20479;-73
2021/03/02 00:11:17;;;;;;;11.73;5.27;;;5.20;90.00;;;;;;4984042;28;20038;-72
2021/03/02 00:13:44;;;;;;;12.27;5.43;;;5.10;90.00;;;;;;4982643;28;20051;-73
2021/03/02 00:20:08;;;;;;;10.97;4.97;;;5.20;90.00;;;;;;4893177;29;20083;-75
2021/03/02 00:23:06;;;;;;;11.07;5.23;;;5.10;90.00;;;;;;4894504;29;20064;-75
2021/03/02 00:25:41;;;;;;;10.13;4.67;;;5.10;90.10;;;;;;4898452;29;20080;-75
2021/03/02 00:28:09;;;;;;;9.53;4.13;;;5.00;90.10;;;;;;4899035;29;20571;-75
2021/03/02 00:30:38;;;;;;;9.00;4.50;;;5.00;90.10;;;;;;4908231;29;20071;-75
2021/03/02 00:36:22;;;;;;;8.50;3.77;;;5.00;90.20;;;;;;5210802;23;20060;-75
2021/03/02 00:38:48;;;;;;;13.83;6.40;;;5.00;90.20;;;;;;4894418;29;20044;-74
2021/03/02 00:41:15;;;;;;;13.53;6.27;;;4.90;90.20;;;;;;4881946;29;20104;-74
2021/03/02 00:43:41;;;;;;;12.73;5.30;;;5.00;90.20;;;;;;4896044;29;20140;-74
2021/03/02 00:46:08;;;;;;;12.57;4.97;;;5.00;90.20;;;;;;4896928;29;20044;-74
2021/03/02 00:48:35;;;;;;;11.27;5.17;;;4.90;90.20;;;;;;4898124;29;20041;-74
2021/03/02 00:51:03;;;;;;;10.50;5.60;;;4.90;90.20;;;;;;4896463;29;20032;-74
2021/03/02 00:53:30;;;;;;;11.77;5.60;;;4.90;90.20;;;;;;4896773;29;20052;-74
2021/03/02 00:55:56;;;;;;;12.30;5.30;;;4.90;90.20;;;;;;4881822;29;20560;-74
2021/03/02 00:58:23;;;;;;;11.17;5.47;;;4.90;90.20;;;;;;4885257;29;20041;-74
2021/03/02 01:00:50;;;;;;;11.50;4.93;;;4.90;90.20;;;;;;4878513;29;20041;-74
2021/03/02 01:03:18;;;;;;;11.57;5.03;;;4.90;90.20;;;;;;4897365;29;20481;-74
2021/03/02 01:05:45;;;;;;;9.93;4.60;;;4.90;90.30;;;;;;4897612;29;20078;-72
2021/03/02 01:08:19;;;;;;;10.03;4.93;;;4.80;90.20;;;;;;4882101;29;20492;-72
2021/03/02 01:10:46;;;;;;;11.47;4.83;;;4.80;90.20;;;;;;4897543;29;20037;-72
2021/03/02 01:13:17;;;;;;;10.77;4.53;;;4.80;90.30;;;;;;4896260;29;20112;-72
2021/03/02 01:15:44;;;;;;;10.73;4.40;;;4.80;90.30;;;;;;4892223;29;20382;-72
2021/03/02 01:18:11;;;;;;;9.97;4.37;;;4.80;90.30;;;;;;4896474;29;20045;-72
2021/03/02 01:20:38;;;;;;;9.67;4.53;;;4.80;90.30;;;;;;4890460;29;20072;-72
2021/03/02 01:23:06;;;;;;;11.63;4.60;;;4.80;90.30;;;;;;4895568;29;20129;-72
2021/03/02 01:25:32;;;;;;;10.67;4.90;;;4.70;90.30;;;;;;4875951;29;20056;-74
2021/03/02 01:27:59;;;;;;;9.57;4.60;;;4.70;90.30;;;;;;4895145;29;20044;-74
2021/03/02 01:30:26;;;;;;;11.53;4.80;;;4.70;90.30;;;;;;4897646;29;20045;-74
2021/03/02 01:32:53;;;;;;;8.80;4.07;;;4.70;90.40;;;;;;4896670;29;20092;-74
2021/03/02 01:35:20;;;;;;;11.53;5.13;;;4.70;90.40;;;;;;4897666;29;20139;-74
2021/03/02 01:37:52;;;;;;;10.43;4.73;;;4.60;90.40;;;;;;4890640;29;20446;-74
2021/03/02 01:40:19;;;;;;;9.83;5.63;;;4.60;90.40;;;;;;4890396;29;20163;-74
2021/03/02 01:42:46;;;;;;;9.67;5.27;;;4.60;90.40;;;;;;4896604;29;20100;-74
2021/03/02 01:45:17;;;;;;;12.93;5.70;;;4.60;90.40;;;;;;4894819;29;20108;-74
2021/03/02 01:47:46;;;;;;;13.10;5.77;;;4.60;90.40;;;;;;4894193;29;20109;-74
2021/03/02 01:50:13;;;;;;;11.33;5.60;;;4.60;90.40;;;;;;4891898;29;20036;-74
2021/03/02 01:52:41;;;;;;;12.73;5.90;;;4.60;90.40;;;;;;4896903;29;20048;-72
2021/03/02 01:55:08;;;;;;;11.87;5.27;;;4.50;90.40;;;;;;4874764;29;20037;-72
2021/03/02 01:57:35;;;;;;;13.07;6.33;;;4.50;90.50;;;;;;4895552;29;20514;-72
2021/03/02 02:00:21;;;;;;;12.57;6.17;;;4.50;90.40;;;;;;4896307;29;20048;-72
2021/03/02 02:03:13;;;;;;;12.77;5.40;;;4.50;90.50;;;;;;4890908;29;20573;-72
2021/03/02 02:06:20;;;;;;;12.17;5.47;;;4.50;90.50;;;;;;4894711;29;20049;-72
2021/03/02 02:09:08;;;;;;;13.73;5.27;;;4.50;90.50;;;;;;4889614;29;20057;-72
2021/03/02 02:11:40;;;;;;;12.57;5.63;;;4.50;90.50;;;;;;4885798;29;20051;-72
2021/03/02 02:14:12;;;;;;;14.20;5.60;;;4.40;90.50;;;;;;4894950;29;20045;-72
2021/03/02 02:16:42;;;;;;;15.25;6.05;;;4.40;90.50;;;;;;4890064;29;20044;-72
2021/03/02 02:19:35;;;;;;;11.67;5.63;;;4.40;90.50;;;;;;4895156;29;20481;-72
2021/03/02 02:22:27;;;;;;;12.18;5.38;;;4.40;90.50;;;;;;4874954;29;20515;-72
2021/03/02 02:25:02;;;;;;;10.90;4.80;;;4.40;90.50;;;;;;4896070;29;20044;-72
2021/03/02 02:27:31;;;;;;;11.80;5.03;;;4.30;90.50;;;;;;4895794;29;20052;-72
2021/03/02 02:30:00;;;;;;;10.67;4.57;;;4.30;90.50;;;;;;4886447;29;20053;-72
2021/03/02 02:32:28;;;;;;;9.93;4.80;;;4.30;90.60;;;;;;4891784;29;20044;-72
2021/03/02 02:34:57;;;;;;;10.97;4.87;;;4.30;90.60;;;;;;4894824;29;20120;-72
2021/03/02 02:37:26;;;;;;;11.47;4.40;;;4.20;90.60;;;;;;4888531;29;20036;-72
2021/03/02 02:39:54;;;;;;;13.53;5.10;;;4.20;90.60;;;;;;4878991;29;20048;-72
2021/03/02 02:42:23;;;;;;;12.53;5.70;;;4.20;90.60;;;;;;4908582;29;20407;-72
2021/03/02 02:44:50;;;;;;;11.07;4.70;;;4.20;90.60;;;;;;4892116;29;20108;-72
2021/03/02 02:47:18;;;;;;;11.00;5.30;;;4.20;90.70;;;;;;4897072;29;20068;-72
2021/03/02 02:49:47;;;;;;;12.30;5.90;;;4.20;90.60;;;;;;4879211;29;20049;-72
2021/03/02 02:52:17;;;;;;;11.73;4.83;;;4.20;90.60;;;;;;4892807;29;20507;-72
2021/03/02 02:54:46;;;;;;;14.73;6.97;;;4.20;90.60;;;;;;4890511;29;20144;-71
2021/03/02 02:57:15;;;;;;;13.07;5.90;;;4.20;90.70;;;;;;4895098;29;20041;-71
2021/03/02 02:59:45;;;;;;;13.40;5.10;;;4.20;90.70;;;;;;4896313;29;20505;-72
2021/03/02 03:02:19;;;;;;;11.33;5.23;;;4.20;90.70;;;;;;4891509;29;20092;-72
2021/03/02 03:04:58;;;;;;;13.60;6.63;;;4.10;90.70;;;;;;4896498;29;20119;-71
2021/03/02 03:07:37;;;;;;;11.60;5.17;;;4.10;90.70;;;;;;4895604;29;20052;-72
2021/03/02 03:10:20;;;;;;;13.37;4.93;;;4.10;90.70;;;;;;4895614;29;20048;-72
2021/03/02 03:12:49;;;;;;;12.60;5.17;;;4.10;90.70;;;;;;4890469;29;20112;-72
2021/03/02 03:15:18;;;;;;;12.60;5.80;;;4.10;90.70;;;;;;4898183;29;20052;-72
2021/03/02 03:17:51;;;;;;;12.13;5.30;;;4.10;90.70;;;;;;4899222;29;20063;-72
2021/03/02 03:20:22;;;;;;;15.03;6.43;;;4.10;90.80;;;;;;4899959;29;20511;-72
2021/03/02 03:22:51;;;;;;;12.90;5.85;;;4.10;90.80;;;;;;4897601;29;20056;-72
2021/03/02 03:25:18;;;;;;;14.70;6.43;;;4.00;90.70;;;;;;4899508;29;20564;-72
2021/03/02 03:27:50;;;;;;;13.47;6.20;;;4.00;90.70;;;;;;4899359;29;20037;-71
2021/03/02 03:30:17;;;;;;;13.50;5.40;;;4.00;90.70;;;;;;4897653;29;20049;-71
2021/03/02 03:32:52;;;;;;;15.03;7.50;;;4.00;90.80;;;;;;4895740;29;20078;-72
2021/03/02 03:35:21;;;;;;;13.27;6.47;;;4.00;90.80;;;;;;4897558;29;20095;-72
2021/03/02 03:37:47;;;;;;;15.13;6.83;;;4.00;90.80;;;;;;4899834;29;20163;-72
2021/03/02 03:40:14;;;;;;;15.73;6.77;;;3.90;90.80;;;;;;4898090;29;20041;-72
2021/03/02 03:42:41;;;;;;;12.97;6.30;;;4.00;90.80;;;;;;4896100;29;20052;-71
2021/03/02 03:45:08;;;;;;;17.27;6.13;;;3.90;91.10;;;;;;4896040;29;20048;-72
2021/03/02 03:47:36;;;;;;;12.83;5.53;;;3.90;90.80;;;;;;4897606;29;20139;-72
2021/03/02 03:50:05;;;;;;;12.93;5.93;;;3.90;90.80;;;;;;4897894;29;20048;-74
2021/03/02 03:52:33;;;;;;;13.17;6.47;;;3.90;90.90;;;;;;4897839;29;20109;-74
2021/03/02 03:55:00;;;;;;;12.93;5.73;;;3.90;90.90;;;;;;4897875;29;20103;-74
2021/03/02 03:57:27;;;;;;;14.43;6.77;;;3.80;90.90;;;;;;4899890;29;20048;-74
2021/03/02 03:59:54;;;;;;;13.80;6.00;;;3.90;90.90;;;;;;4894605;29;20047;-74
2021/03/02 04:02:21;;;;;;;11.80;5.70;;;3.80;90.90;;;;;;4894722;29;20045;-74
2021/03/02 04:04:48;;;;;;;11.77;5.23;;;3.80;90.90;;;;;;4899520;29;20404;-72
2021/03/02 04:07:16;;;;;;;14.47;6.00;;;3.80;90.90;;;;;;4898100;29;20052;-74
2021/03/02 04:09:44;;;;;;;13.30;5.47;;;3.80;90.90;;;;;;4893415;29;20059;-74
2021/03/02 04:12:11;;;;;;;13.27;5.87;;;3.80;91.00;;;;;;4889423;29;20048;-74
2021/03/02 04:14:39;;;;;;;11.63;5.00;;;3.80;90.90;;;;;;4880495;29;20172;-74
2021/03/02 04:17:09;;;;;;;11.67;5.90;;;3.80;90.90;;;;;;4896677;29;20049;-74
2021/03/02 04:19:36;;;;;;;13.37;6.03;;;3.80;90.90;;;;;;4897571;29;20139;-71
2021/03/02 04:22:03;;;;;;;12.30;5.17;;;3.80;90.90;;;;;;4892701;29;20045;-71
2021/03/02 04:24:30;;;;;;;12.87;6.13;;;3.80;90.90;;;;;;4897050;29;20044;-72
2021/03/02 04:26:56;;;;;;;11.93;4.53;;;3.80;90.90;;;;;;4897899;29;20100;-72
2021/03/02 04:29:23;;;;;;;11.30;5.20;;;3.80;90.90;;;;;;4896120;29;20037;-72
2021/03/02 04:31:49;;;;;;;11.43;5.83;;;3.70;91.00;;;;;;4897558;29;20044;-72
2021/03/02 04:34:16;;;;;;;11.30;4.60;;;3.70;91.00;;;;;;4880652;29;20044;-72
2021/03/02 04:36:43;;;;;;;9.40;4.40;;;3.70;91.00;;;;;;4881836;29;20496;-72
2021/03/02 04:39:10;;;;;;;12.70;5.50;;;3.70;91.00;;;;;;4897417;29;20052;-72
2021/03/02 04:41:37;;;;;;;10.30;4.10;;;3.70;91.00;;;;;;4896682;29;20044;-72
2021/03/02 04:44:03;;;;;;;10.87;5.50;;;3.70;91.00;;;;;;4896775;29;20083;-72
2021/03/02 04:46:30;;;;;;;12.43;5.17;;;3.60;91.00;;;;;;4876395;29;20045;-72
2021/03/02 04:48:57;;;;;;;12.33;5.47;;;3.60;91.00;;;;;;4898711;29;20072;-72
2021/03/02 04:51:23;;;;;;;12.33;5.17;;;3.60;91.00;;;;;;4896240;29;20045;-72
2021/03/02 04:53:49;;;;;;;11.27;5.23;;;3.60;91.10;;;;;;4897424;29;20028;-72
2021/03/02 04:56:16;;;;;;;10.70;4.83;;;3.60;91.10;;;;;;4897396;29;20100;-72
2021/03/02 04:58:42;;;;;;;9.83;4.47;;;3.60;91.10;;;;;;4893145;29;20088;-72
2021/03/02 05:01:09;;;;;;;9.97;4.20;;;3.60;91.10;;;;;;4897052;29;20483;-72
2021/03/02 05:03:40;;;;;;;11.17;4.13;;;3.60;91.10;;;;;;4897925;29;20048;-72
2021/03/02 05:06:07;;;;;;;9.60;4.20;;;3.60;91.10;;;;;;4897754;29;20036;-72
2021/03/02 05:08:33;;;;;;;8.90;4.30;;;3.60;91.10;;;;;;4897440;29;20879;-72
2021/03/02 05:11:00;;;;;;;9.47;3.90;;;3.60;91.10;;;;;;4897677;29;20048;-71
2021/03/02 05:13:26;;;;;;;10.60;3.97;;;3.50;91.10;;;;;;4895875;29;20056;-71
2021/03/02 05:16:09;;;;;;;9.53;3.93;;;3.60;91.10;;;;;;4882324;29;20076;-71
2021/03/02 05:18:36;;;;;;;11.17;4.90;;;3.50;91.10;;;;;;4888025;29;20049;-72
2021/03/02 05:21:03;;;;;;;7.37;3.30;;;3.50;91.10;;;;;;4896683;29;20071;-72
2021/03/02 05:23:30;;;;;;;11.30;4.07;;;3.50;91.10;;;;;;4892975;29;20488;-72
2021/03/02 05:25:56;;;;;;;11.43;3.73;;;3.50;91.10;;;;;;4896301;29;20045;-72
2021/03/02 05:28:23;;;;;;;9.93;4.37;;;3.50;91.10;;;;;;4875829;29;20579;-72
2021/03/02 05:30:49;;;;;;;10.97;4.97;;;3.50;91.10;;;;;;4891204;29;20045;-72
2021/03/02 05:33:16;;;;;;;10.27;4.77;;;3.50;91.10;;;;;;4880986;29;20068;-72
2021/03/02 05:35:43;;;;;;;9.13;4.30;;;3.50;91.10;;;;;;4894927;29;20493;-72
2021/03/02 05:38:09;;;;;;;12.17;5.83;;;3.50;91.20;;;;;;4886719;29;20049;-73
2021/03/02 05:40:41;;;;;;;12.90;5.37;;;3.50;91.10;;;;;;4880621;29;20047;-73
2021/03/02 05:43:09;;;;;;;;;;;3.50;91.10;;;;;;4878151;29;20056;-72
2021/03/02 05:45:36;;;;;;;9.77;4.37;;;3.40;91.10;;;;;;4896453;29;19951;-72
2021/03/02 05:48:09;;;;;;;8.37;3.77;;;3.50;91.10;;;;;;4877278;29;20136;-71
2021/03/02 05:50:36;;;;;;;12.87;5.83;;;3.50;91.10;;;;;;4888521;29;20136;-71
2021/03/02 05:53:03;;;;;;;11.80;5.20;;;3.40;91.10;;;;;;4896556;29;20045;-71
2021/03/02 05:55:33;;;;;;;10.80;4.70;;;3.50;91.10;;;;;;4880462;29;20049;-71
2021/03/02 05:58:01;;;;;;;10.97;4.63;;;3.50;91.10;;;;;;4891955;29;20056;-71
2021/03/02 06:00:28;;;;;;;10.97;5.67;;;3.40;91.10;;;;;;4892210;29;20040;-71
2021/03/02 06:02:55;;;;;;;9.73;4.57;;;3.40;91.10;;;;;;4895838;29;20052;-73
2021/03/02 06:05:22;;;;;;;11.13;5.13;;;3.40;91.20;;;;;;4894186;29;20037;-73
2021/03/02 06:07:48;;;;;;;9.90;4.83;;;3.40;91.20;;;;;;4865252;29;20056;-73
2021/03/02 06:10:18;;;;;;;11.33;4.97;;;3.40;91.20;;;;;;4891744;29;20044;-73
2021/03/02 06:12:55;;;;;;;9.77;4.47;;;3.50;91.20;;;;;;4890373;29;20171;-73
2021/03/02 06:15:23;;;;;;;10.30;4.80;;;3.50;91.20;;;;;;4894072;29;20124;-71
2021/03/02 06:18:10;;;;;;;11.73;4.93;;;3.50;91.20;;;;;;4894057;29;20065;-73
2021/03/02 06:20:39;;;;;;;10.33;4.43;;;3.50;91.10;;;;;;4895993;29;20064;-74
2021/03/02 06:23:21;;;;;;;10.10;4.50;;;3.50;91.10;;;;;;4892742;29;20103;-71
2021/03/02 06:25:48;;;;;;;8.90;4.23;;;3.50;91.10;;;;;;4895056;29;20511;-71
2021/03/02 06:28:33;;;;;;;14.03;6.73;;;3.50;91.10;;;;;;4888748;29;20496;-71
2021/03/02 06:31:00;;;;;;;12.23;5.77;;;3.50;91.10;;;;;;4881254;29;20044;-71
2021/03/02 06:33:27;;;;;;;12.70;7.23;;;3.50;91.10;;;;;;4879434;29;20492;-71
2021/03/02 06:35:53;;;;;;;11.37;5.60;;;3.50;91.10;;;;;;4895671;29;20055;-71
2021/03/02 06:38:34;;;;;;;11.57;5.33;;;3.50;91.10;;;;;;4863965;29;20045;-73
2021/03/02 06:41:01;;;;;;;11.33;5.40;;;3.50;91.10;;;;;;4896172;29;20058;-74
2021/03/02 06:43:39;;;;;;;10.53;5.57;;;3.50;91.10;;;;;;4894861;29;20453;-73
2021/03/02 06:46:06;;;;;;;11.83;5.57;;;3.60;91.10;;;;;;4888959;29;20085;-73
2021/03/02 06:48:52;;;;;;;10.60;5.53;;;3.50;91.10;;;;;;4884850;29;20040;-73
2021/03/02 06:51:29;;;;;;;11.17;5.30;;;3.60;91.10;;;;;;4895795;29;20396;-74
2021/03/02 06:54:24;;;;;;;10.97;4.80;;;3.60;91.10;;;;;;4895819;29;20045;-73
2021/03/02 06:57:03;;;;;;;10.23;4.37;;;3.60;91.10;;;;;;4896761;29;20454;-73
2021/03/02 06:59:30;;;;;;;11.07;4.90;;;3.70;91.10;;;;;;4880324;29;20100;-73
2021/03/02 07:01:57;;;;;;;11.90;5.00;;;3.70;91.10;;;;;;4894916;29;20449;-73
2021/03/02 07:04:28;;;;;;;10.37;5.23;;;3.70;91.10;;;;;;4894713;29;20049;-73
2021/03/02 07:06:57;;;;;;;11.47;4.43;;;3.70;91.00;;;;;;4893102;29;20048;-77
2021/03/02 07:09:28;;;;;;;10.40;4.40;;;3.80;91.10;;;;;;4896801;29;20100;-73
2021/03/02 07:11:59;;;;;;;12.37;5.13;;;3.80;91.00;;;;;;4896314;29;20108;-71
2021/03/02 07:14:27;;;;;;;10.63;5.03;;;3.80;91.00;;;;;;4883250;29;20408;-72
2021/03/02 07:16:55;;;;;;;10.67;4.67;;;3.90;91.00;;;;;;4894469;29;20104;-71
2021/03/02 07:19:23;;;;;;;13.00;6.07;;;3.90;91.00;;;;;;4896567;29;20123;-75
2021/03/02 07:21:57;;;;;;;11.40;5.67;;;4.00;91.00;;;;;;4896584;29;20415;-75
2021/03/02 07:24:31;;;;;;;13.07;5.30;;;4.00;91.00;;;;;;4881162;29;20055;-72
2021/03/02 07:27:02;;;;;;;12.30;5.63;;;4.10;90.90;;;;;;4896466;29;20473;-75
2021/03/02 07:29:29;;;;;;;11.60;5.57;;;4.10;90.90;;;;;;4895920;29;20567;-71
2021/03/02 07:31:56;;;;;;;11.10;5.70;;;4.10;90.90;;;;;;4896086;29;20128;-71
2021/03/02 07:34:24;;;;;;;9.70;4.80;;;4.20;90.90;;;;;;4895049;29;20059;-71
2021/03/02 07:36:51;;;;;;;10.87;5.47;;;4.30;90.90;;;;;;4895457;29;20052;-71
2021/03/02 07:39:20;;;;;;;11.73;5.27;;;4.30;90.80;;;;;;4880148;29;20044;-73
2021/03/02 07:41:51;;;;;;;9.90;4.83;;;4.30;90.80;;;;;;4894984;29;20048;-73
2021/03/02 07:44:19;;;;;;;14.07;6.13;;;4.40;90.70;;;;;;4894681;29;20052;-74
2021/03/02 07:46:54;;;;;;;12.53;5.43;;;4.50;90.70;;;;;;4894719;29;20080;-73
2021/03/02 07:49:23;;;;;;;10.67;5.63;;;4.50;90.70;;;;;;4878933;29;20128;-73
2021/03/02 07:52:02;;;;;;;11.23;5.30;;;4.50;90.70;;;;;;4895791;29;20505;-73
2021/03/02 07:54:30;;;;;;;11.57;5.40;;;4.60;90.60;;;;;;4885418;29;20651;-73
2021/03/02 07:57:15;;;;;;;10.30;4.60;;;4.70;90.60;;;;;;4895249;29;20043;-73
2021/03/02 07:59:42;;;;;;;13.00;6.13;;;4.70;90.60;;;;;;4896875;29;20036;-73
2021/03/02 08:02:27;;;;;;;10.40;5.10;;;4.80;90.60;;;;;;4896357;29;20518;-74
2021/03/02 08:05:28;;;;;;;10.63;5.23;;;4.80;90.50;;;;;;4899553;29;20063;-73
2021/03/02 08:08:23;;;;;;;11.93;5.57;;;4.90;90.50;;;;;;4894955;29;20423;-74
2021/03/02 08:10:57;;;;;;;11.73;5.77;;;4.90;90.40;;;;;;4898454;29;20309;-74
2021/03/02 08:13:41;;;;;;;11.20;5.00;;;5.00;90.40;;;;;;4899027;29;20045;-74
2021/03/02 08:16:13;;;;;;;8.47;4.57;;;5.00;90.40;;;;;;4887601;29;20055;-76
2021/03/02 08:18:42;;;;;;;13.27;5.70;;;5.10;90.40;;;;;;4899710;29;20362;-75
2021/03/02 08:21:17;;;;;;;11.43;5.93;;;5.10;90.30;;;;;;4907105;29;20048;-76
2021/03/02 08:23:46;;;;;;;12.60;6.93;;;5.20;90.30;;;;;;4897095;29;20044;-74
2021/03/02 08:26:21;;;;;;;12.77;6.70;;;5.20;90.30;;;;;;4898398;29;20044;-75
2021/03/02 08:29:08;;;;;;;14.43;8.20;;;5.30;90.20;;;;;;4898793;29;20061;-76
2021/03/02 08:31:36;;;;;;;14.40;6.90;;;5.30;90.20;;;;;;4887793;29;20045;-74
2021/03/02 08:34:04;;;;;;;12.97;6.33;;;5.40;90.10;;;;;;4898975;29;20096;-73
2021/03/02 08:36:31;;;;;;;14.33;7.10;;;5.40;90.10;;;;;;4881967;29;20060;-74
2021/03/02 08:38:58;;;;;;;13.60;6.53;;;5.50;90.10;;;;;;4898555;29;20044;-74
2021/03/02 08:41:33;;;;;;;11.70;5.90;;;5.50;90.10;;;;;;4899101;29;20500;-75
2021/03/02 08:44:00;;;;;;;12.87;6.80;;;5.60;90.00;;;;;;4898590;29;20080;-74
2021/03/02 08:46:30;;;;;;;10.40;5.97;;;5.60;90.00;;;;;;4897348;29;20048;-74
2021/03/02 08:48:57;;;;;;;12.47;6.47;;;5.70;90.00;;;;;;4877658;29;20067;-74
2021/03/02 08:51:25;;;;;;;12.83;6.33;;;5.70;90.00;;;;;;4893563;29;20485;-75
2021/03/02 08:53:52;;;;;;;13.00;5.93;;;5.80;89.90;;;;;;4897935;29;20051;-75
2021/03/02 08:56:26;;;;;;;13.80;6.57;;;5.80;89.70;;;;;;4897892;29;20128;-74
2021/03/02 08:59:02;;;;;;;10.20;5.20;;;5.90;89.70;;;;;;4893369;29;20096;-75
2021/03/02 09:01:33;;;;;;;10.83;5.30;;;5.90;89.70;;;;;;4888198;29;20049;-74
2021/03/02 09:04:18;;;;;;;10.53;5.27;;;5.90;89.60;;;;;;4868155;29;20179;-72
2021/03/02 09:06:46;;;;;;;10.80;5.63;;;6.00;89.60;;;;;;4889324;29;20040;-75
2021/03/02 09:09:14;;;;;;;9.50;4.60;;;6.00;89.50;;;;;;4897872;29;20044;-75
2021/03/02 09:11:40;;;;;;;12.40;5.50;;;6.10;89.50;;;;;;4898385;29;20047;-75
2021/03/02 09:14:17;;;;;;;11.50;5.43;;;6.10;89.40;;;;;;4897210;29;20134;-75
2021/03/02 09:16:51;;;;;;;10.83;5.20;;;6.20;89.30;;;;;;4898667;29;20465;-75
2021/03/02 09:19:28;;;;;;;11.17;5.17;;;6.20;89.20;;;;;;4898784;29;20044;-75
2021/03/02 09:22:07;;;;;;;10.27;4.53;;;6.20;89.10;;;;;;4897063;29;20051;-75
2021/03/02 09:24:45;;;;;;;10.37;5.33;;;6.30;89.00;;;;;;4882891;29;20118;-74
2021/03/02 09:27:17;;;;;;;12.60;6.47;;;6.40;89.00;;;;;;4892475;29;20045;-74
2021/03/02 09:29:48;;;;;;;10.60;5.77;;;6.40;88.80;;;;;;4886179;29;20045;-73
2021/03/02 09:32:23;;;;;;;9.63;4.60;;;6.50;88.80;;;;;;4878431;29;20055;-73
2021/03/02 09:34:58;;;;;;;8.83;5.07;;;6.50;88.80;;;;;;4891865;29;20045;-74
2021/03/02 09:37:25;;;;;;;10.20;5.17;;;6.60;88.80;;;;;;4896728;29;20056;-74
2021/03/02 09:40:02;;;;;;;8.80;4.47;;;6.60;88.70;;;;;;4896181;29;20599;-74
2021/03/02 09:42:32;;;;;;;11.03;4.67;;;6.70;88.60;;;;;;4896101;29;20496;-75
2021/03/02 09:45:03;;;;;;;8.37;3.93;;;6.70;88.50;;;;;;4896729;29;20416;-73
2021/03/02 09:47:35;;;;;;;8.40;4.60;;;6.70;88.40;;;;;;4897028;29;20044;-76
2021/03/02 09:50:03;;;;;;;8.00;3.92;;;6.80;88.50;;;;;;4895951;29;20675;-75
2021/03/02 09:52:36;;;;;;;10.03;5.23;;;6.80;88.40;;;;;;4895255;29;20044;-74
2021/03/02 09:55:14;;;;;;;8.60;4.30;;;6.90;88.40;;;;;;4888672;29;20049;-74
2021/03/02 09:58:07;;;;;;;7.30;3.63;;;6.90;88.20;;;;;;4895595;29;20040;-74
2021/03/02 10:00:38;;;;;;;8.40;4.53;;;7.00;88.30;;;;;;4897112;29;20127;-73
2021/03/02 10:03:15;;;;;;;9.23;4.28;;;7.00;88.20;;;;;;4895310;29;20036;-73
2021/03/02 10:05:58;;;;;;;10.25;5.68;;;7.10;88.10;;;;;;4895367;29;20571;-72
2021/03/02 10:08:34;;;;;;;;;;;7.20;88.00;;;;;;4896085;29;20067;-71
2021/03/02 10:11:21;;;;;;;7.90;4.20;;;7.20;88.10;;;;;;4891858;29;19946;-72
2021/03/02 10:13:59;;;;;;;10.20;4.93;;;7.20;87.80;;;;;;4890813;29;20053;-73
2021/03/02 10:16:32;;;;;;;10.10;4.87;;;7.30;87.80;;;;;;4895296;29;20055;-70
2021/03/02 10:19:21;;;;;;;7.43;4.37;;;7.30;87.80;;;;;;4896897;29;20140;-72
2021/03/02 10:21:56;;;;;;;9.10;4.37;;;7.40;87.80;;;;;;4895808;29;20041;-72
2021/03/02 10:24:34;;;;;;;9.47;4.07;;;7.50;87.70;;;;;;4896573;29;20057;-70
2021/03/02 10:27:18;;;;;;;8.50;4.33;;;7.50;87.60;;;;;;4906228;29;20051;-71
2021/03/02 10:29:46;;;;;;;7.93;4.27;;;7.60;87.60;;;;;;4894408;29;20056;-74
2021/03/02 10:32:14;;;;;;;8.32;4.28;;;7.60;87.60;;;;;;4892471;29;20056;-76
2021/03/02 10:34:41;;;;;;;7.37;3.67;;;7.70;87.50;;;;;;4895411;29;20040;-77
2021/03/02 10:37:10;;;;;;;9.33;5.03;;;7.80;87.40;;;;;;4897014;29;20119;-78
2021/03/02 10:39:40;;;;;;;7.93;4.47;;;7.90;87.40;;;;;;4896297;29;20053;-77
2021/03/02 10:42:11;;;;;;;8.60;4.60;;;8.00;87.30;;;;;;4896479;29;20041;-72
2021/03/02 10:44:38;;;;;;;9.15;4.80;;;8.10;87.20;;;;;;4878602;29;20055;-72
2021/03/02 10:47:06;;;;;;;7.03;3.55;;;8.10;87.10;;;;;;4879472;29;20489;-74
2021/03/02 10:49:33;;;;;;;9.73;4.57;;;8.20;87.10;;;;;;4890809;29;20108;-71
2021/03/02 10:52:00;;;;;;;10.10;4.90;;;8.20;87.00;;;;;;4895491;29;20044;-71
2021/03/02 10:54:26;;;;;;;9.73;4.03;;;8.30;86.90;;;;;;4896059;29;20106;-71
2021/03/02 10:56:53;;;;;;;8.65;4.72;;;8.40;86.80;;;;;;4878441;29;20047;-71
2021/03/02 10:59:19;;;;;;;8.93;4.68;;;8.50;86.70;;;;;;4894566;29;20115;-71
2021/03/02 11:01:46;;;;;;;8.90;4.22;;;8.60;86.70;;;;;;4897126;29;20036;-71
2021/03/02 11:04:13;;;;;;;7.53;4.55;;;8.70;86.60;;;;;;4895010;29;20506;-71
2021/03/02 11:06:40;;;;;;;9.55;4.82;;;8.80;86.50;;;;;;4892966;29;20468;-72
2021/03/02 11:09:06;;;;;;;6.88;3.63;;;8.90;86.30;;;;;;4894610;29;20171;-72
2021/03/02 11:11:33;;;;;;;10.38;4.90;;;9.00;86.20;;;;;;4895216;29;20155;-72
2021/03/02 11:13:59;;;;;;;7.97;4.30;;;9.00;86.10;;;;;;4895227;29;20040;-72
2021/03/02 11:16:26;;;;;;;8.20;4.45;;;9.10;86.00;;;;;;4894988;29;20472;-72
2021/03/02 11:18:57;;;;;;;8.13;4.38;;;9.20;85.90;;;;;;4879233;29;20079;-72
2021/03/02 11:21:25;;;;;;;9.25;5.15;;;9.30;85.80;;;;;;4891985;29;20056;-71
2021/03/02 11:23:53;;;;;;;7.18;3.53;;;9.40;85.50;;;;;;4894227;29;20134;-71
2021/03/02 11:26:20;;;;;;;7.95;4.07;;;9.50;85.20;;;;;;4902031;29;20044;-71
2021/03/02 11:28:47;;;;;;;16.33;4.32;;;9.60;85.10;;;;;;4884345;29;20032;-71
2021/03/02 11:31:13;;;;;;;7.28;3.65;;;9.70;84.90;;;;;;4894445;29;20036;-71
2021/03/02 11:33:43;;;;;;;7.22;4.50;;;9.80;84.70;;;;;;4893902;29;20472;-74
2021/03/02 11:36:10;;;;;;;8.18;3.97;;;9.80;84.40;;;;;;4885607;29;20056;-72
2021/03/02 11:38:37;;;;;;;5.47;3.22;;;9.90;84.30;;;;;;4898373;29;20044;-72
2021/03/02 11:41:07;;;;;;;6.80;3.45;;;10.00;84.20;;;;;;4891937;29;20080;-73
2021/03/02 11:43:33;;;;;;;6.90;3.65;;;10.00;84.10;;;;;;4879385;29;20494;-73
2021/03/02 11:45:59;;;;;;;8.15;4.05;;;10.20;83.90;;;;;;4887524;29;20059;-72
2021/03/02 11:48:26;;;;;;;5.93;3.45;;;10.30;83.60;;;;;;4892429;29;20164;-72
2021/03/02 11:50:57;;;;;;;7.10;3.38;;;10.30;83.40;;;;;;4885224;29;20096;-72
2021/03/02 11:53:24;;;;;;;9.15;4.38;;;10.40;83.30;;;;;;4897705;29;20061;-72
2021/03/02 11:55:51;;;;;;;7.03;4.03;;;10.40;83.00;;;;;;4899328;29;20049;-74
2021/03/02 11:58:17;;;;;;;8.00;4.68;;;10.40;82.90;;;;;;4879876;29;20033;-72
2021/03/02 12:00:44;;;;;;;7.53;3.45;;;10.50;82.80;;;;;;4892449;29;20045;-73
2021/03/02 12:03:17;;;;;;;;;;;10.50;82.70;;;;;;4883510;29;20489;-72
2021/03/02 12:05:44;;;;;;;6.97;3.25;;;10.50;82.80;;;;;;4897361;29;19931;-72
2021/03/02 12:08:12;;;;;;;7.35;3.75;;;10.50;82.80;;;;;;4894463;29;20098;-72
2021/03/02 12:10:38;;;;;;;6.53;3.30;;;10.60;82.70;;;;;;4890245;29;20028;-71
2021/03/02 12:13:06;;;;;;;6.32;3.33;;;10.70;82.50;;;;;;4895896;29;20152;-72
2021/03/02 12:15:33;;;;;;;6.90;3.30;;;10.70;82.20;;;;;;4896039;29;20100;-72
2021/03/02 12:17:59;;;;;;;7.72;4.00;;;10.80;82.10;;;;;;4896362;29;20048;-76
2021/03/02 12:20:26;;;;;;;8.02;4.50;;;10.90;81.80;;;;;;4886666;29;20123;-75
2021/03/02 12:22:52;;;;;;;7.75;4.18;;;10.90;81.60;;;;;;4899606;29;20047;-75
2021/03/02 12:25:19;;;;;;;6.80;3.67;;;11.00;81.50;;;;;;4899029;29;20044;-75
2021/03/02 12:27:46;;;;;;;5.75;3.38;;;11.10;81.40;;;;;;4856042;29;20461;-74
2021/03/02 12:30:12;;;;;;;7.22;3.83;;;11.10;81.30;;;;;;4897734;29;20108;-75
2021/03/02 12:32:39;;;;;;;5.85;3.00;;;11.10;81.10;;;;;;4881984;29;20108;-75
2021/03/02 12:35:07;;;;;;;7.57;3.47;;;11.20;81.00;;;;;;4898828;29;20044;-75
2021/03/02 12:37:34;;;;;;;7.15;3.55;;;11.20;80.80;;;;;;4897624;29;20536;-75
2021/03/02 12:40:01;;;;;;;6.63;3.83;;;11.30;80.80;;;;;;4898760;29;20374;-72
2021/03/02 12:42:27;;;;;;;7.85;4.00;;;11.30;80.70;;;;;;4897587;29;20119;-71
2021/03/02 12:44:53;;;;;;;6.60;3.53;;;11.30;80.60;;;;;;4882084;29;20104;-75
2021/03/02 12:47:20;;;;;;;7.53;4.40;;;11.30;80.40;;;;;;4898246;29;20041;-77
2021/03/02 12:49:47;;;;;;;7.28;4.10;;;11.40;80.30;;;;;;4895659;29;20405;-76
2021/03/02 12:52:15;;;;;;;6.78;3.78;;;11.50;80.10;;;;;;4881285;29;20136;-75
2021/03/02 12:54:43;;;;;;;6.15;3.38;;;11.50;80.10;;;;;;4898121;29;20100;-74
2021/03/02 12:57:10;;;;;;;7.78;4.57;;;11.50;79.90;;;;;;4893181;29;20040;-75
2021/03/02 12:59:36;;;;;;;7.82;4.65;;;11.60;79.80;;;;;;4882370;29;20523;-76
2021/03/02 13:02:04;;;;;;;8.70;4.38;;;11.60;79.50;;;;;;4897513;29;20054;-74
2021/03/02 13:04:32;;;;;;;7.65;4.60;;;11.70;79.40;;;;;;4898983;29;20041;-75
2021/03/02 13:06:58;;;;;;;10.23;4.85;;;11.70;79.30;;;;;;4898294;29;20464;-75
2021/03/02 13:09:26;;;;;;;7.63;4.38;;;11.80;79.20;;;;;;4898056;29;20556;-74
2021/03/02 13:11:52;;;;;;;7.82;4.03;;;11.80;79.10;;;;;;4894423;29;20048;-74
2021/03/02 13:14:18;;;;;;;7.20;3.78;;;11.90;79.10;;;;;;4896912;29;20123;-74